createdAt,value
2022-09-16T00:00:39.724Z,1014.0
2022-09-16T00:15:23.248Z,1014.0
2022-09-16T00:30:28.189Z,1014.0
2022-09-16T00:45:23.276Z,1014.0
2022-09-16T01:00:25.549Z,1014.0
2022-09-16T01:15:23.335Z,1014.0
2022-09-16T01:30:23.441Z,1014.0
2022-09-16T01:45:23.182Z,1014.0
2022-09-16T02:00:27.689Z,1014.0
2022-09-16T02:15:23.359Z,1014.0
2022-09-16T02:30:23.367Z,1014.0
2022-09-16T02:45:23.526Z,1014.0
2022-09-16T03:00:24.984Z,1014.0
2022-09-16T03:15:23.304Z,1014.0
2022-09-16T03:30:23.289Z,1014.0
2022-09-16T03:45:23.464Z,1014.0
2022-09-16T04:00:34.324Z,1014.0
2022-09-16T04:15:23.381Z,1014.0
2022-09-16T04:30:23.653Z,1014.0
2022-09-16T04:45:23.657Z,1013.7
2022-09-16T05:00:23.633Z,1013.3
2022-09-16T05:15:23.524Z,1013.0
2022-09-16T05:30:25.971Z,1013.7
2022-09-16T05:45:27.674Z,1014.0
2022-09-16T06:00:59.671Z,1014.0
2022-09-16T06:15:24.109Z,1014.0
2022-09-16T06:30:38.368Z,1014.0
2022-09-16T06:45:23.739Z,1013.7
2022-09-16T07:00:26.069Z,1014.0
2022-09-16T07:15:23.694Z,1014.0
2022-09-16T07:30:24.021Z,1014.0
2022-09-16T07:45:23.741Z,1014.0
2022-09-16T08:00:26.829Z,1014.0
2022-09-16T08:15:33.072Z,1014.0
2022-09-16T08:30:33.512Z,1014.7
2022-09-16T08:45:32.955Z,1015.0
2022-09-16T09:00:43.014Z,1015.0
2022-09-16T09:15:27.480Z,1015.0
2022-09-16T09:30:29.660Z,1015.0
2022-09-16T09:45:22.666Z,1015.0
2022-09-16T10:00:33.404Z,1015.0
2022-09-16T10:15:23.287Z,1015.0
2022-09-16T10:30:24.034Z,1015.0
2022-09-16T10:45:23.131Z,1014.5
2022-09-16T11:00:31.622Z,1015.0
2022-09-16T11:15:23.416Z,1015.0
2022-09-16T11:30:23.203Z,1015.0
2022-09-16T11:45:23.119Z,1015.0
2022-09-16T12:00:25.712Z,1015.0
2022-09-16T12:15:23.265Z,1015.0
2022-09-16T12:30:25.522Z,1014.0
2022-09-16T12:45:22.955Z,1014.3
2022-09-16T13:00:23.522Z,1014.0
2022-09-16T13:15:23.257Z,1014.0
2022-09-16T13:30:23.384Z,1014.0
2022-09-16T13:45:23.223Z,1014.0
2022-09-16T14:00:25.419Z,1014.0
2022-09-16T14:15:23.395Z,1014.0
2022-09-16T14:30:23.385Z,1014.0
2022-09-16T14:45:23.272Z,1014.0
2022-09-16T15:00:32.130Z,1014.0
2022-09-16T15:31:43.293Z,1014.0
2022-09-16T15:46:44.132Z,1014.0
2022-09-16T16:01:44.356Z,1014.0
2022-09-16T16:15:24.215Z,1014.0
2022-09-16T16:30:27.695Z,1014.0
2022-09-16T16:45:23.754Z,1014.0
2022-09-16T17:00:59.488Z,1014.0
2022-09-16T17:15:24.282Z,1014.0
2022-09-16T17:30:29.375Z,1014.0
2022-09-16T17:45:23.670Z,1014.0
2022-09-16T18:00:23.794Z,1014.0
2022-09-16T18:15:23.740Z,1014.0
2022-09-16T18:30:25.801Z,1014.3
2022-09-16T18:45:23.804Z,1015.0
2022-09-16T19:00:36.532Z,1015.0
2022-09-16T19:15:23.802Z,1015.0
2022-09-16T19:30:31.327Z,1015.0
2022-09-16T19:45:27.722Z,1015.0
2022-09-16T20:00:55.300Z,1015.0
2022-09-16T20:15:24.135Z,1015.0
2022-09-16T20:30:25.201Z,1015.0
2022-09-16T20:45:23.937Z,1015.0
2022-09-16T21:00:28.622Z,1015.0
2022-09-16T21:15:24.357Z,1015.7
2022-09-16T21:30:23.977Z,1016.0
2022-09-16T21:45:33.057Z,1016.0
2022-09-16T22:15:22.956Z,1016.0
2022-09-16T22:30:26.351Z,1016.0
2022-09-16T22:45:23.185Z,1016.0
2022-09-16T23:00:23.231Z,1016.0
2022-09-16T23:15:23.173Z,1016.0
2022-09-16T23:30:23.411Z,1016.0
2022-09-16T23:45:22.973Z,1016.0
